Grand River, IA

12:19 AM CDT on August 30, 2014 (GMT -0500)
Lamoni Municipal | Change Station
CLOSE
Current Station
Airport
Location: Lamoni,
Elevation: 1132 ft
Nearby Weather Stations

Elev 1132 ft 40.63 °N, 93.90 °W | Updated 26 minutes ago

Light Rain
Light Rain
66 °F
Feels Like 66 °F
N
4
Wind Variable Wind from East

Today
High -- | Low -- °F
--% Chance of Precip.
Yesterday
High -- | Low -- °F
Precip. -- in
6:40 AM 7:51 PM
Waxing Crescent, 19% visible
Pressure 29.82 in
Visibility 7.0 miles
Clouds Few 5500 ft
Scattered Clouds 8000 ft
Overcast 11000 ft
Dew Point 64 °F
Humidity 93%
Rainfall 0.83 in
Snow Depth Not available.
UV 0 out of 12
Pollen 6.50 out of 12
Air Quality Not available.
Flu Activity Not available.
METAR KLWD 300453Z AUTO 10003KT 7SM -RA FEW055 SCT080 OVC110 19/18 A2984 RMK AO2 WSHFT 0338 LTG DSNT NE AND S TSE11 SLP098 P0031 T01890178

More Conditions Fewer Conditions

Pressure 29.82 in
Visibility 7.0 miles
Clouds Few 5500 ft
Scattered Clouds 8000 ft
Overcast 11000 ft
Dew Point 64 °F
Humidity 93%
Rainfall 0.83 in
Snow Depth Not available.
UV 0 out of 12
Pollen 6.50 out of 12
Air Quality Not available.
Flu Activity Not available.
METAR KLWD 300453Z AUTO 10003KT 7SM -RA FEW055 SCT080 OVC110 19/18 A2984 RMK AO2 WSHFT 0338 LTG DSNT NE AND S TSE11 SLP098 P0031 T01890178

More Conditions Fewer Conditions

10-Day Weather Forecast

Almanac

Astronomy

Aug. 30, 2014 Rise Set
Actual Time 6:40 AM CDT 7:51 PM CDT
Civil Twilight 6:12 AM CDT 8:19 PM CDT
Nautical Twilight 5:38 AM CDT 8:53 PM CDT
Astronomical Twilight 5:03 AM CDT 9:28 PM CDT
Moon 11:31 AM CDT 10:23 PM CDT
Length of Visible Light 14h 06m
Length of Day
13h 10m
Tomorrow will be 2m 36s shorter.
Waxing Crescent, 19% of the Moon is Illuminated
Today
Waxing Crescent
Sep 2
First Quarter
Sep 8
Full
Sep 15
Last Quarter
Sep 24
New

Today's Extremes

State Highs State Lows

Community

WunderPhotos

Upload Photos

1,748,463 photos uploaded!

Nearby

Snow Depth

Station Depth Elevation
No new snow has been reported.

Earthquake Activity

City Distance Mag. Time & Date
No recent earthquake activity has been reported nearby.
Minimum magnitude displayed is 2.5.

Coastal Water Temperatures

Place Temperature
No Stations Reporting

Nearby Weather Stations